地図

経路データ

SID SEASON NUMBER BASIN SUBBASIN NAME ISO_TIME NATURE LAT LON WMO_WIND WMO_PRES WMO_AGENCY TRACK_TYPE DIST2LAND LANDFALL IFLAG USA_AGENCY USA_ATCF_ID USA_LAT USA_LON USA_RECORD USA_STATUS USA_WIND USA_PRES USA_SSHS USA_R34_NE USA_R34_SE USA_R34_SW USA_R34_NW USA_R50_NE USA_R50_SE USA_R50_SW USA_R50_NW USA_R64_NE USA_R64_SE USA_R64_SW USA_R64_NW USA_POCI USA_ROCI USA_RMW USA_EYE TOKYO_LAT TOKYO_LON TOKYO_GRADE TOKYO_WIND TOKYO_PRES TOKYO_R50_DIR TOKYO_R50_LONG TOKYO_R50_SHORT TOKYO_R30_DIR TOKYO_R30_LONG TOKYO_R30_SHORT TOKYO_LAND CMA_LAT CMA_LON CMA_CAT CMA_WIND CMA_PRES HKO_LAT HKO_LON HKO_CAT HKO_WIND HKO_PRES NEWDELHI_LAT NEWDELHI_LON NEWDELHI_GRADE NEWDELHI_WIND NEWDELHI_PRES NEWDELHI_CI NEWDELHI_DP NEWDELHI_POCI REUNION_LAT REUNION_LON REUNION_TYPE REUNION_WIND REUNION_PRES REUNION_TNUM REUNION_CI REUNION_RMW REUNION_R34_NE REUNION_R34_SE REUNION_R34_SW REUNION_R34_NW REUNION_R50_NE REUNION_R50_SE REUNION_R50_SW REUNION_R50_NW REUNION_R64_NE REUNION_R64_SE REUNION_R64_SW REUNION_R64_NW BOM_LAT BOM_LON BOM_TYPE BOM_WIND BOM_PRES BOM_TNUM BOM_CI BOM_RMW BOM_R34_NE BOM_R34_SE BOM_R34_SW BOM_R34_NW BOM_R50_NE BOM_R50_SE BOM_R50_SW BOM_R50_NW BOM_R64_NE BOM_R64_SE BOM_R64_SW BOM_R64_NW BOM_ROCI BOM_POCI BOM_EYE BOM_POS_METHOD BOM_PRES_METHOD NADI_LAT NADI_LON NADI_CAT NADI_WIND NADI_PRES WELLINGTON_LAT WELLINGTON_LON WELLINGTON_WIND WELLINGTON_PRES DS824_LAT DS824_LON DS824_STAGE DS824_WIND DS824_PRES TD9636_LAT TD9636_LON TD9636_STAGE TD9636_WIND TD9636_PRES TD9635_LAT TD9635_LON TD9635_WIND TD9635_PRES TD9635_ROCI NEUMANN_LAT NEUMANN_LON NEUMANN_CLASS NEUMANN_WIND NEUMANN_PRES MLC_LAT MLC_LON MLC_CLASS MLC_WIND MLC_PRES USA_GUST BOM_GUST BOM_GUST_PER REUNION_GUST REUNION_GUST_PER USA_SEAHGT USA_SEARAD_NE USA_SEARAD_SE USA_SEARAD_SW USA_SEARAD_NW STORM_SPEED STORM_DIR
1918040S11050 1918 13 SI MM NOT_NAMED 1918-02-09 00:00:00 TS -10.6000 49.6000 main 171 157 _________O____ -1 -10.6000 49.6000 TC 25 6 242
1918040S11050 1918 13 SI MM NOT_NAMED 1918-02-09 03:00:00 TS -10.7376 49.3400 main 156 134 _________P____ -1 -10.7376 49.3400 TC 25 6 239
1918040S11050 1918 13 SI MM NOT_NAMED 1918-02-09 06:00:00 TS -10.9000 49.1000 main 134 116 _________O____ -1 -10.9000 49.1000 TC 25 6 230
1918040S11050 1918 13 SI MM NOT_NAMED 1918-02-09 09:00:00 TS -11.1000 48.8925 main 116 104 _________P____ -1 -11.1000 48.8925 TC 25 6 224
1918040S11050 1918 13 SI MM NOT_NAMED 1918-02-09 12:00:00 TS -11.3000 48.7000 main 104 102 _________O____ -1 -11.3000 48.7000 TC 25 5 228
1918040S11050 1918 13 SI MM NOT_NAMED 1918-02-09 15:00:00 TS -11.4500 48.5000 main 109 101 _________P____ -1 -11.4500 48.5000 TC 25 5 232
1918040S11050 1918 13 SI MM NOT_NAMED 1918-02-09 18:00:00 TS -11.6000 48.3000 main 109 109 _________O____ -1 -11.6000 48.3000 TC 25 5 228
1918040S11050 1918 13 SI MM NOT_NAMED 1918-02-09 21:00:00 TS -11.7849 48.1149 main 109 109 _________P____ -1 -11.7849 48.1149 TC 25 6 224
1918040S11050 1918 13 SI MM NOT_NAMED 1918-02-10 00:00:00 TS -12.0000 47.9000 main 112 112 _________O____ -1 -12.0000 47.9000 TC 25 7 227
1918040S11050 1918 13 SI MM NOT_NAMED 1918-02-10 03:00:00 TS -12.2425 47.6150 main 134 132 _________P____ -1 -12.2425 47.6150 TC 25 8 230
1918040S11050 1918 13 SI MM NOT_NAMED 1918-02-10 06:00:00 TS -12.5000 47.3000 main 144 140 _________O____ -1 -12.5000 47.3000 TC 25 8 230
1918040S11050 1918 13 SI MM NOT_NAMED 1918-02-10 09:00:00 TS -12.7500 46.9999 main 147 140 _________P____ -1 -12.7500 46.9999 TC 25 8 230
1918040S11050 1918 13 SI MM NOT_NAMED 1918-02-10 12:00:00 TS -13.0000 46.7000 main 151 151 _________O____ -1 -13.0000 46.7000 TC 25 8 230
1918040S11050 1918 13 SI MM NOT_NAMED 1918-02-10 15:00:00 TS -13.2425 46.3924 main 171 168 _________P____ -1 -13.2425 46.3924 TC 25 8 229
1918040S11050 1918 13 SI MM NOT_NAMED 1918-02-10 18:00:00 TS -13.5000 46.1000 main 195 193 _________O____ -1 -13.5000 46.1000 TC 25 8 224
1918040S11050 1918 13 SI MM NOT_NAMED 1918-02-10 21:00:00 TS -13.8075 45.8350 main 198 180 _________P____ -1 -13.8075 45.8350 TC 25 8 219
1918040S11050 1918 13 SI MM NOT_NAMED 1918-02-11 00:00:00 TS -14.1000 45.6000 main 180 172 _________O____ -1 -14.1000 45.6000 TC 25 7 220
1918040S11050 1918 13 SI MM NOT_NAMED 1918-02-11 03:00:00 TS -14.3150 45.3924 main 178 162 _________P____ -1 -14.3150 45.3924 TC 25 6 224
1918040S11050 1918 13 SI MM NOT_NAMED 1918-02-11 06:00:00 TS -14.5000 45.2000 main 162 145 _________O____ -1 -14.5000 45.2000 TC 25 5 225
1918040S11050 1918 13 SI MM NOT_NAMED 1918-02-11 09:00:00 TS -14.6925 45.0074 main 145 127 _________P____ -1 -14.6925 45.0074 TC 25 6 224
1918040S11050 1918 13 SI MM NOT_NAMED 1918-02-11 12:00:00 TS -14.9000 44.8000 main 127 109 _________O____ -1 -14.9000 44.8000 TC 25 6 224
1918040S11050 1918 13 SI MM NOT_NAMED 1918-02-11 15:00:00 TS -15.1500 44.5575 main 114 101 _________P____ -1 -15.1500 44.5575 TC 25 7 224
1918040S11050 1918 13 SI MM NOT_NAMED 1918-02-11 18:00:00 TS -15.4000 44.3000 main 101 84 _________O____ -1 -15.4000 44.3000 TC 25 7 227
1918040S11050 1918 13 SI MM NOT_NAMED 1918-02-11 21:00:00 TS -15.6150 44.0425 main 89 77 _________P____ -1 -15.6150 44.0425 TC 25 6 230
1918040S11050 1918 13 SI MM NOT_NAMED 1918-02-12 00:00:00 TS -15.8000 43.8000 main 85 85 _________O____ -1 -15.8000 43.8000 TC 25 6 233
1918040S11050 1918 13 SI MM NOT_NAMED 1918-02-12 03:00:00 TS -15.9500 43.5849 main 96 91 _________P____ -1 -15.9500 43.5849 TC 25 5 232
1918040S11050 1918 13 SI MM NOT_NAMED 1918-02-12 06:00:00 TS -16.1000 43.4000 main 109 109 _________O____ -1 -16.1000 43.4000 TC 25 5 224
1918040S11050 1918 13 SI MM NOT_NAMED 1918-02-12 09:00:00 TS -16.2925 43.2425 main 128 128 _________P____ -1 -16.2925 43.2425 TC 25 5 216
1918040S11050 1918 13 SI MM NOT_NAMED 1918-02-12 12:00:00 TS -16.5000 43.1000 main 132 125 _________O____ -1 -16.5000 43.1000 TC 25 5 215
1918040S11050 1918 13 SI MM NOT_NAMED 1918-02-12 15:00:00 TS -16.6925 42.9500 main 138 132 _________P____ -1 -16.6925 42.9500 TC 25 5 216
1918040S11050 1918 13 SI MM NOT_NAMED 1918-02-12 18:00:00 TS -16.9000 42.8000 main 134 129 _________O____ -1 -16.9000 42.8000 TC 25 5 213
1918040S11050 1918 13 SI MM NOT_NAMED 1918-02-12 21:00:00 TS -17.1425 42.6425 main 145 139 _________P____ -1 -17.1425 42.6425 TC 25 6 210
1918040S11050 1918 13 SI MM NOT_NAMED 1918-02-13 00:00:00 TS -17.4000 42.5000 main 148 148 _________O____ -1 -17.4000 42.5000 TC 25 6 206
1918040S11050 1918 13 SI MM NOT_NAMED 1918-02-13 03:00:00 TS -17.6425 42.3850 main 159 159 _________P____ -1 -17.6425 42.3850 TC 25 5 201
1918040S11050 1918 13 SI MM NOT_NAMED 1918-02-13 06:00:00 TS -17.9000 42.3000 main 175 175 _________O____ -1 -17.9000 42.3000 TC 25 6 194
1918040S11050 1918 13 SI MM NOT_NAMED 1918-02-13 09:00:00 TS -18.2000 42.2425 main 190 189 _________P____ -1 -18.2000 42.2425 TC 25 6 189
1918040S11050 1918 13 SI MM NOT_NAMED 1918-02-13 12:00:00 TS -18.5000 42.2000 main 190 190 _________O____ -1 -18.5000 42.2000 TC 25 6 189
1918040S11050 1918 13 SI MM NOT_NAMED 1918-02-13 15:00:00 TS -18.7575 42.1500 main 205 205 _________P____ -1 -18.7575 42.1500 TC 25 5 191
1918040S11050 1918 13 SI MM NOT_NAMED 1918-02-13 18:00:00 TS -19.0000 42.1000 main 211 211 _________O____ -1 -19.0000 42.1000 TC 25 5 193
1918040S11050 1918 13 SI MM NOT_NAMED 1918-02-13 21:00:00 TS -19.2425 42.0351 main 228 228 _________P____ -1 -19.2425 42.0351 TC 25 5 191
1918040S11050 1918 13 SI MM NOT_NAMED 1918-02-14 00:00:00 TS -19.5000 42.0000 main 235 227 _________O____ -1 -19.5000 42.0000 TC 25 6 183
1918040S11050 1918 13 SI MM NOT_NAMED 1918-02-14 03:00:00 TS -19.8000 42.0349 main 227 203 _________P____ -1 -19.8000 42.0349 TC 25 6 171
1918040S11050 1918 13 SI MM NOT_NAMED 1918-02-14 06:00:00 TS -20.1000 42.1000 main 203 190 _________O____ -1 -20.1000 42.1000 TC 25 6 169
1918040S11050 1918 13 SI MM NOT_NAMED 1918-02-14 09:00:00 TS -20.3575 42.1500 main 175 161 _________P____ -1 -20.3575 42.1500 TC 25 5 169
1918040S11050 1918 13 SI MM NOT_NAMED 1918-02-14 12:00:00 TS -20.6000 42.2000 main 161 150 _________O____ -1 -20.6000 42.2000 TC 25 5 170
1918040S11050 1918 13 SI MM NOT_NAMED 1918-02-14 15:00:00 TS -20.8575 42.2425 main 145 128 _________P____ -1 -20.8575 42.2425 TC 25 5 169
1918040S11050 1918 13 SI MM NOT_NAMED 1918-02-14 18:00:00 TS -21.1000 42.3000 main 128 114 _________O____ -1 -21.1000 42.3000 TC 25 4 164
1918040S11050 1918 13 SI MM NOT_NAMED 1918-02-14 21:00:00 TS -21.2774 42.3702 main 114 98 _________P____ -1 -21.2774 42.3702 TC 25 4 155
1918040S11050 1918 13 SI MM NOT_NAMED 1918-02-15 00:00:00 TS -21.5000 42.5000 main 98 61 _________O____ -1 -21.5000 42.5000 TC 25 7 151
1918040S11050 1918 13 SI MM NOT_NAMED 1918-02-15 03:00:00 TS -21.8775 42.7199 main 61 20 _________P____ -1 -21.8775 42.7199 TC 25 9 150
1918040S11050 1918 13 SI MM NOT_NAMED 1918-02-15 06:00:00 TS -22.3000 43.0000 main 20 10 _________O____ -1 -22.3000 43.0000 TC 25 10 146
1918040S11050 1918 13 SI MM NOT_NAMED 1918-02-15 09:00:00 TS -22.6725 43.3000 main 10 0 _________P____ -1 -22.6725 43.3000 TC 25 9 142
1918040S11050 1918 13 SI MM NOT_NAMED 1918-02-15 12:00:00 TS -23.0000 43.6000 main 0 0 _________O____ -1 -23.0000 43.6000 TC 25 8 139
1918040S11050 1918 13 SI MM NOT_NAMED 1918-02-15 15:00:00 TS -23.2649 43.8577 main 0 0 _________P____ -1 -23.2649 43.8577 TC 25 7 137
1918040S11050 1918 13 SI MM NOT_NAMED 1918-02-15 18:00:00 TS -23.5000 44.1000 main 0 0 _________O____ -1 -23.5000 44.1000 TC 25 7 138
1918040S11050 1918 13 SI MM NOT_NAMED 1918-02-15 21:00:00 TS -23.7499 44.3426 main 0 0 _________P____ -1 -23.7499 44.3426 TC 25 7 137
1918040S11050 1918 13 SI MM NOT_NAMED 1918-02-16 00:00:00 TS -24.0000 44.6000 main 0 0 _________O____ -1 -24.0000 44.6000 TC 25 7 135
1918040S11050 1918 13 SI MM NOT_NAMED 1918-02-16 03:00:00 TS -24.2500 44.8926 main 0 0 _________P____ -1 -24.2500 44.8926 TC 25 7 132
1918040S11050 1918 13 SI MM NOT_NAMED 1918-02-16 06:00:00 TS -24.5000 45.2000 main 0 0 _________O____ -1 -24.5000 45.2000 TC 25 8 133
1918040S11050 1918 13 SI MM NOT_NAMED 1918-02-16 09:00:00 TS -24.7574 45.5001 main 0 0 _________P____ -1 -24.7574 45.5001 TC 25 7 132
1918040S11050 1918 13 SI MM NOT_NAMED 1918-02-16 12:00:00 TS -25.0000 45.8000 main 0 0 _________O____ -1 -25.0000 45.8000 TC 25 7 130
1918040S11050 1918 13 SI MM NOT_NAMED 1918-02-16 15:00:00 TS -25.2074 46.1002 main 0 0 _________P____ -1 -25.2074 46.1002 TC 25 7 126
1918040S11050 1918 13 SI MM NOT_NAMED 1918-02-16 18:00:00 TS -25.4000 46.4000 main 30 24 _________O____ -1 -25.4000 46.4000 TC 25 7 126
1918040S11050 1918 13 SI MM NOT_NAMED 1918-02-16 21:00:00 TS -25.5976 46.6998 main 44 44 _________P____ -1 -25.5976 46.6998 TC 25 7 126
1918040S11050 1918 13 SI MM NOT_NAMED 1918-02-17 00:00:00 TS -25.8000 47.0000 main 69 _________O____ -1 -25.8000 47.0000 TC 25 7 127

IBTrACS Databaseについて

本データベースは、米国NOAAが公開する1842年以降の世界の熱帯低気圧のベストトラックデータアーカイブInternational Best Track Archive for Climate Stewardship (IBTrACS)を、ウェブで閲覧しやすい形式に変換したものです。

最終更新日:2021-11-26